Pagina principale
METAR-TAF:

METAR-TAF

Aeroporti :

Aeroporto di Milano-Malpensa

Milano, Italia

latitudine: 45-37N, longitudine: 008-44E, altezza: 234 m

Osservazione

Il bollettino è stato emesso 6 ore e 35 minuti fa, alle 05:20 UTC
Vento 5 kt da nord
Temperature 22°C
Umidità 73%
Pressione 1017 hPa
Visibilità 10 km o più
nessuna nube inferiore a 1500 m e nessun cumulonembo

METAR: LIMC 210520Z 36005KT CAVOK 22/17 Q1017 NOSIG

Ora: 13:55 (11:55 UTC)

Previsione

Il bollettino è stato emesso 6 ore e 55 minuti fa, alle 05:00 UTC
Previsione valida dal 21 alle 06 UTC al 22 alle 12 UTC
Vento 5 kt da nord/nord-est
Visibilità 10 km o più
Nubi sparse ad un'altezza di 6000 ft

TAF: LIMC 210500Z 2106/2212 02005KT 9999 SCT060

Osservazioni e previsioni meteorologiche di più di 4000 aeroporti (messaggi METAR e TAF).

Le stazioni disponibili sono rappresentate dai dischi gialli e rossi sulla carta.

Puntare il mouse per vedere il nome della stazione.

Clicca sopra per visualizzare le osservazioni e previsioni meteorologiche.

Per cambiare la mappa : fare clic sui pulsanti verdi con una croce nera per ingrandire, il pulsante verde con un trattino per diminuire, o sulla freccia verde per le mappe adiacenti.


METAR-TAF: